Flats, Nebraska
Current Conditions -  °F | °C
As of 8:53 PM on Sunday 21 Dec 2014 (Local Time) from KLBF Reporting Station
Broken Clouds Broken Clouds  
Wind Chill: 30°   Ceiling: 10000
Heat Index: 35°   Visibility: 10mi
Dew Point: 32°   Wind: 6mph
Humidity: 89%   Direction: 190°S
Pressure: 29.48"   Gusts: NA
Location:  41.1714°N, 101.184°W
Report Text: KLBF 220253Z AUTO 19005KT 10SM BKN100 BKN120 02/00 A2948 RMK AO2 SLP006 T00170000 58008 $
Loading
Personal Weather Stations






























Interactive Weather Map New forecast layout! Learn more

10-Day Weather Forecast

Advertisements
Track Severe Weather on mobile